Time;durP1;ratioP1;P1;durP2;ratioP2;P2;SDS_P1;SDS_P2;PMS_P1;PMS_P2;Temp;Humidity;BMP_temperature;BMP_pressure;BME280_temperature;BME280_humidity;BME280_pressure;Samples;Min_cycle;Max_cycle;Signal;HPM_P1;HPM_P2
2022/03/29 08:02:56;;;;;;;29.52;17.20;;;9.90;99.90;;;;;;5091164;28;20190;-73
2022/03/29 08:05:22;;;;;;;97.70;21.88;;;10.00;99.90;;;;;;5090797;28;20164;-73
2022/03/29 08:07:48;;;;;;;85.63;21.92;;;10.10;99.90;;;;;;5090726;28;20164;-74
2022/03/29 08:10:14;;;;;;;29.92;16.13;;;10.10;99.90;;;;;;5091008;28;20170;-74
2022/03/29 08:12:40;;;;;;;23.58;15.70;;;10.10;99.90;;;;;;5091127;28;20168;-74
2022/03/29 08:15:07;;;;;;;39.45;17.00;;;10.10;99.90;;;;;;5090666;28;20194;-74
2022/03/29 08:17:33;;;;;;;162.18;25.60;;;10.20;99.90;;;;;;5090523;28;20539;-74
2022/03/29 08:19:59;;;;;;;47.35;16.45;;;10.20;99.90;;;;;;5090480;28;20207;-74
2022/03/29 08:22:25;;;;;;;350.83;41.88;;;10.40;99.90;;;;;;5090574;28;20171;-74
2022/03/29 08:24:51;;;;;;;120.55;22.33;;;10.50;99.90;;;;;;5090500;28;20253;-74
2022/03/29 08:27:16;;;;;;;40.28;16.33;;;10.60;99.90;;;;;;5090437;28;20625;-74
2022/03/29 08:29:42;;;;;;;26.08;15.15;;;10.70;99.90;;;;;;5090440;28;20168;-74
2022/03/29 08:32:08;;;;;;;22.67;14.68;;;10.80;99.90;;;;;;5090266;28;20629;-74
2022/03/29 08:34:33;;;;;;;19.85;13.27;;;10.90;99.90;;;;;;5090316;28;20191;-74
2022/03/29 08:36:59;;;;;;;26.35;14.55;;;11.00;99.90;;;;;;5090242;28;20632;-74
2022/03/29 08:39:24;;;;;;;19.98;14.43;;;11.10;99.90;;;;;;5090109;28;20222;-74
2022/03/29 08:41:58;;;;;;;20.23;14.23;;;11.20;99.90;;;;;;5090147;28;20168;-74
2022/03/29 08:44:26;;;;;;;24.30;13.82;;;11.20;99.90;;;;;;5090122;28;20175;-74
2022/03/29 08:46:52;;;;;;;18.73;12.75;;;11.40;99.90;;;;;;5090015;28;20203;-74
2022/03/29 08:49:19;;;;;;;22.60;14.93;;;11.40;99.90;;;;;;5090057;28;20192;-74
2022/03/29 08:51:45;;;;;;;22.80;14.60;;;11.50;99.90;;;;;;5089971;28;20504;-74
2022/03/29 08:54:11;;;;;;;18.63;13.75;;;11.60;99.90;;;;;;5089895;28;20168;-74
2022/03/29 08:56:39;;;;;;;22.08;13.30;;;11.60;99.90;;;;;;5089891;28;20226;-74
2022/03/29 08:59:05;;;;;;;20.95;15.15;;;11.70;99.90;;;;;;5089622;28;20230;-74
2022/03/29 09:01:31;;;;;;;21.55;13.40;;;11.70;99.90;;;;;;5089816;28;20168;-74
2022/03/29 09:04:13;;;;;;;24.98;13.75;;;11.60;99.90;;;;;;5088550;28;20271;-74
2022/03/29 09:06:54;;;;;;;18.08;13.15;;;11.80;99.90;;;;;;5089765;28;20164;-74
2022/03/29 09:09:32;;;;;;;26.80;14.13;;;11.80;99.90;;;;;;5088817;28;20171;-74
2022/03/29 09:12:19;;;;;;;19.65;12.85;;;11.80;99.90;;;;;;5075976;28;20218;-74
2022/03/29 09:14:54;;;;;;;20.15;13.32;;;11.70;99.90;;;;;;5075708;28;20282;-74
2022/03/29 09:17:53;;;;;;;22.88;14.25;;;11.80;99.90;;;;;;5074736;28;20207;-74
2022/03/29 09:20:22;;;;;;;20.92;13.70;;;11.90;99.90;;;;;;5075722;28;20199;-74
2022/03/29 09:22:55;;;;;;;18.60;13.00;;;11.90;99.90;;;;;;5075935;28;20252;-74
2022/03/29 09:25:35;;;;;;;20.23;13.07;;;11.90;99.90;;;;;;5075955;28;20197;-74
2022/03/29 09:28:03;;;;;;;22.42;13.10;;;11.90;99.90;;;;;;5075824;28;20172;-74
2022/03/29 09:30:40;;;;;;;19.48;13.10;;;11.90;99.90;;;;;;5075810;28;20169;-74
2022/03/29 09:33:07;;;;;;;18.50;13.60;;;11.90;99.90;;;;;;5075814;28;20175;-74
2022/03/29 09:35:37;;;;;;;17.63;12.18;;;12.10;99.90;;;;;;5075682;28;20168;-74
2022/03/29 09:38:34;;;;;;;18.65;12.35;;;12.10;99.90;;;;;;5074298;28;20200;-74
2022/03/29 09:41:01;;;;;;;18.98;12.15;;;12.20;99.90;;;;;;5076054;28;20605;-74
2022/03/29 09:43:28;;;;;;;19.75;13.93;;;12.20;99.90;;;;;;5075563;28;20196;-74
2022/03/29 09:45:57;;;;;;;22.30;12.93;;;12.20;99.90;;;;;;5075481;28;20255;-74
2022/03/29 09:48:34;;;;;;;18.15;11.50;;;12.20;99.90;;;;;;5075470;28;20180;-74
2022/03/29 09:51:14;;;;;;;16.95;12.27;;;12.20;99.90;;;;;;5075479;28;20173;-74
2022/03/29 09:53:40;;;;;;;14.88;12.38;;;12.20;99.90;;;;;;5075310;28;20255;-74
2022/03/29 09:56:08;;;;;;;19.05;12.90;;;12.20;99.90;;;;;;5075302;28;20582;-74
2022/03/29 09:58:33;;;;;;;16.48;11.98;;;12.10;99.90;;;;;;5075017;28;20216;-74
2022/03/29 10:00:59;;;;;;;15.77;11.93;;;12.20;99.90;;;;;;5075216;28;20168;-74
2022/03/29 10:03:26;;;;;;;17.50;12.05;;;12.20;99.90;;;;;;5075136;28;20164;-74
2022/03/29 10:05:53;;;;;;;17.15;11.30;;;12.30;99.90;;;;;;5075008;28;20169;-74
2022/03/29 10:11:15;;;;;;;14.77;10.68;;;12.40;99.90;;;;;;5075294;28;20179;-74
2022/03/29 10:13:42;;;;;;;21.05;11.77;;;12.60;99.90;;;;;;5074882;28;20226;-74
2022/03/29 10:16:14;;;;;;;18.17;11.38;;;12.50;99.90;;;;;;5074850;28;20180;-74
2022/03/29 10:18:46;;;;;;;17.65;10.80;;;12.70;99.90;;;;;;5074708;28;20227;-74
2022/03/29 10:21:15;;;;;;;13.40;11.18;;;12.80;99.90;;;;;;5074399;28;20183;-74
2022/03/29 10:23:45;;;;;;;18.17;10.57;;;12.80;99.90;;;;;;5074248;28;20656;-74
2022/03/29 10:26:16;;;;;;;22.27;14.05;;;12.90;99.90;;;;;;5074705;28;20644;-74
2022/03/29 10:28:42;;;;;;;41.38;22.58;;;13.00;99.90;;;;;;5074629;28;20200;-74
2022/03/29 10:31:29;;;;;;;43.13;24.13;;;13.10;99.90;;;;;;5074545;28;20573;-74
2022/03/29 10:34:19;;;;;;;47.20;23.90;;;13.10;99.90;;;;;;5074515;28;20173;-74
2022/03/29 10:37:07;;;;;;;50.15;26.70;;;13.00;99.90;;;;;;5074528;28;20172;-74
2022/03/29 10:39:53;;;;;;;54.38;27.33;;;13.00;99.90;;;;;;5072999;28;20548;-74
2022/03/29 10:42:24;;;;;;;52.97;27.80;;;13.10;99.90;;;;;;5074324;28;20645;-74
2022/03/29 10:45:19;;;;;;;47.42;27.38;;;12.90;99.90;;;;;;5074291;28;20225;-74
2022/03/29 10:47:47;;;;;;;47.30;27.73;;;12.90;99.90;;;;;;5073902;28;20211;-74
2022/03/29 10:50:15;;;;;;;46.33;26.92;;;13.00;99.90;;;;;;5074139;28;20157;-74
2022/03/29 10:52:48;;;;;;;47.53;25.75;;;13.10;99.90;;;;;;5074078;28;20195;-74
2022/03/29 10:55:30;;;;;;;50.00;26.90;;;13.10;99.90;;;;;;5074074;28;20214;-74
2022/03/29 10:58:10;;;;;;;48.67;27.60;;;13.20;99.90;;;;;;5073701;28;20164;-74
2022/03/29 11:00:44;;;;;;;50.60;26.33;;;13.30;99.90;;;;;;5074027;28;20171;-74
2022/03/29 11:03:11;;;;;;;47.10;26.35;;;13.30;99.90;;;;;;5073960;28;20165;-74
2022/03/29 11:06:07;;;;;;;49.45;28.27;;;13.40;99.90;;;;;;5073938;28;20165;-74
2022/03/29 11:08:47;;;;;;;59.85;28.65;;;13.60;99.90;;;;;;5073762;28;20203;-74
2022/03/29 11:11:40;;;;;;;54.90;30.05;;;13.60;99.90;;;;;;5073739;28;20164;-74
2022/03/29 11:14:32;;;;;;;55.75;29.38;;;13.50;99.90;;;;;;5073615;28;20234;-74
2022/03/29 11:17:09;;;;;;;53.78;28.10;;;13.40;99.90;;;;;;5073658;28;20175;-74
2022/03/29 11:19:48;;;;;;;49.92;28.95;;;13.50;99.90;;;;;;5073574;28;20198;-74
2022/03/29 11:22:34;;;;;;;55.30;28.90;;;13.50;99.90;;;;;;5073640;28;20169;-74
2022/03/29 11:25:01;;;;;;;54.58;29.27;;;13.30;99.90;;;;;;5073596;28;20644;-73
2022/03/29 11:27:31;;;;;;;51.08;31.00;;;13.00;99.90;;;;;;5073599;28;20168;-74
2022/03/29 11:29:57;;;;;;;54.40;29.38;;;13.00;99.90;;;;;;5073758;28;20574;-74
2022/03/29 11:32:23;;;;;;;51.13;29.98;;;13.00;99.90;;;;;;5073491;28;20251;-74
2022/03/29 11:34:57;;;;;;;48.92;28.08;;;12.90;99.90;;;;;;5073237;28;20195;-74
2022/03/29 11:37:33;;;;;;;51.30;28.60;;;13.10;99.90;;;;;;5073471;28;20204;-74
2022/03/29 11:40:00;;;;;;;55.25;27.77;;;13.10;99.90;;;;;;5072057;28;20230;-73
2022/03/29 11:42:49;;;;;;;50.47;27.63;;;13.00;99.90;;;;;;5072370;28;20534;-74
2022/03/29 11:45:19;;;;;;;48.63;27.75;;;13.00;99.90;;;;;;5073378;28;20164;-74
2022/03/29 11:47:59;;;;;;;47.85;26.33;;;12.80;99.90;;;;;;5073468;28;20160;-74
2022/03/29 11:50:32;;;;;;;54.08;30.02;;;12.80;99.90;;;;;;5073356;28;20251;-74
2022/03/29 11:52:58;;;;;;;60.75;29.95;;;12.80;99.90;;;;;;5072093;28;20526;-73
2022/03/29 11:55:25;;;;;;;50.22;29.15;;;12.70;99.90;;;;;;5073291;28;20172;-74
2022/03/29 11:57:51;;;;;;;49.72;27.85;;;12.80;99.90;;;;;;5072985;28;20164;-74
2022/03/29 12:00:23;;;;;;;49.88;28.27;;;12.80;99.90;;;;;;5071917;28;20200;-74
2022/03/29 12:02:49;;;;;;;57.38;30.23;;;12.70;99.90;;;;;;5073146;28;20171;-73
2022/03/29 12:05:25;;;;;;;57.38;29.42;;;12.70;99.90;;;;;;5073138;28;20247;-74
2022/03/29 12:08:05;;;;;;;55.63;28.08;;;12.80;99.90;;;;;;5073156;28;20544;-74
2022/03/29 12:10:36;;;;;;;50.00;28.17;;;12.80;99.90;;;;;;5073131;28;20161;-74
2022/03/29 12:13:03;;;;;;;56.28;29.58;;;12.90;99.90;;;;;;5072897;28;20199;-73
2022/03/29 12:15:28;;;;;;;45.60;26.75;;;12.80;99.90;;;;;;5073116;28;20184;-74
2022/03/29 12:20:44;;;;;;;48.42;26.80;;;12.90;99.90;;;;;;5073225;28;20179;-74
2022/03/29 12:23:18;;;;;;;49.83;28.23;;;13.00;99.90;;;;;;5073021;28;20618;-74
2022/03/29 12:25:45;;;;;;;51.83;28.20;;;13.00;99.90;;;;;;5072989;28;20214;-73
2022/03/29 12:28:13;;;;;;;49.90;26.70;;;12.90;99.90;;;;;;5072993;28;20192;-74
2022/03/29 12:30:39;;;;;;;48.25;26.90;;;12.70;99.90;;;;;;5072999;28;20161;-73
2022/03/29 12:33:05;;;;;;;49.22;27.05;;;12.70;99.90;;;;;;5072911;28;20626;-73
2022/03/29 12:35:31;;;;;;;49.95;27.83;;;12.70;99.90;;;;;;5072877;28;20195;-74
2022/03/29 12:38:05;;;;;;;50.03;27.13;;;12.60;99.90;;;;;;5072672;28;20226;-73
2022/03/29 12:40:32;;;;;;;49.05;26.85;;;12.70;99.90;;;;;;5072852;28;20178;-74
2022/03/29 12:43:09;;;;;;;48.92;27.08;;;12.70;99.90;;;;;;5072866;28;20176;-74
2022/03/29 12:45:36;;;;;;;51.05;29.10;;;12.90;99.90;;;;;;5074216;28;20621;-74
2022/03/29 12:48:04;;;;;;;45.38;26.92;;;12.90;99.90;;;;;;5076415;28;20173;-74
2022/03/29 12:50:30;;;;;;;48.70;27.17;;;12.90;99.90;;;;;;5076372;28;20169;-74
2022/03/29 12:53:07;;;;;;;45.25;25.75;;;12.80;99.90;;;;;;5076481;28;20527;-74
2022/03/29 12:55:33;;;;;;;46.83;28.00;;;12.90;99.90;;;;;;5076387;28;20175;-74
2022/03/29 12:58:02;;;;;;;51.50;28.38;;;12.90;99.90;;;;;;5076164;28;20191;-74
2022/03/29 13:00:39;;;;;;;47.85;26.33;;;13.00;99.90;;;;;;5076323;28;20168;-74
2022/03/29 13:03:10;;;;;;;45.22;25.90;;;13.10;99.90;;;;;;5076237;28;20188;-74
2022/03/29 13:05:36;;;;;;;52.60;28.77;;;13.10;99.90;;;;;;5076262;28;20161;-74
2022/03/29 13:08:03;;;;;;;42.97;26.00;;;13.20;99.90;;;;;;5076176;28;20172;-74
2022/03/29 13:10:34;;;;;;;45.95;26.67;;;13.40;99.90;;;;;;5076062;28;20164;-74
2022/03/29 13:13:12;;;;;;;53.60;26.60;;;13.60;99.90;;;;;;5074761;28;20188;-74
2022/03/29 13:15:41;;;;;;;44.90;26.08;;;13.70;99.90;;;;;;5076010;28;20251;-74
2022/03/29 13:18:26;;;;;;;49.97;27.13;;;13.80;99.90;;;;;;5075927;28;20161;-74
2022/03/29 13:21:13;;;;;;;41.47;25.70;;;13.80;99.90;;;;;;5075993;28;20168;-74
2022/03/29 13:23:50;;;;;;;39.97;26.35;;;13.90;99.90;;;;;;5075837;28;20230;-74
2022/03/29 13:26:21;;;;;;;44.70;25.75;;;13.80;99.90;;;;;;5075873;28;20222;-74
2022/03/29 13:28:48;;;;;;;47.22;26.90;;;13.70;99.90;;;;;;5075843;28;20172;-74
2022/03/29 13:31:15;;;;;;;43.33;25.60;;;13.60;99.90;;;;;;5075825;28;20691;-74
2022/03/29 13:33:46;;;;;;;44.28;25.60;;;13.40;99.90;;;;;;5075729;28;20172;-74
2022/03/29 13:36:16;;;;;;;43.13;24.67;;;13.30;99.90;;;;;;5075628;28;20172;-74
2022/03/29 13:38:43;;;;;;;47.95;26.35;;;13.00;99.90;;;;;;5075579;28;20207;-74
2022/03/29 13:41:10;;;;;;;48.47;24.35;;;13.00;99.90;;;;;;5075665;28;20172;-74
2022/03/29 13:43:36;;;;;;;41.70;24.85;;;12.90;99.90;;;;;;5075564;28;20251;-74
2022/03/29 13:46:03;;;;;;;39.38;23.15;;;12.90;99.90;;;;;;5075521;28;20168;-74
2022/03/29 13:48:29;;;;;;;37.80;23.73;;;12.70;99.90;;;;;;5075473;28;20168;-74
2022/03/29 13:50:56;;;;;;;39.05;22.10;;;12.80;99.90;;;;;;5075318;28;20181;-74
2022/03/29 13:53:22;;;;;;;37.33;21.60;;;12.80;99.90;;;;;;5074104;28;20578;-74
2022/03/29 13:55:48;;;;;;;39.80;21.73;;;12.80;99.90;;;;;;5075198;28;20255;-74
2022/03/29 13:58:14;;;;;;;36.75;22.35;;;13.00;99.90;;;;;;5074968;28;20228;-74
2022/03/29 14:00:40;;;;;;;35.72;21.80;;;13.10;99.90;;;;;;5075182;28;20175;-74
2022/03/29 14:03:08;;;;;;;36.15;18.65;;;13.30;99.90;;;;;;5075176;28;20172;-73
2022/03/29 14:05:44;;;;;;;39.30;19.48;;;13.40;99.90;;;;;;5075041;28;20168;-73
2022/03/29 14:08:11;;;;;;;31.20;19.25;;;13.40;99.90;;;;;;5075112;28;20213;-74
2022/03/29 14:10:37;;;;;;;33.53;20.20;;;13.40;99.90;;;;;;5073726;28;20264;-75
2022/03/29 14:13:05;;;;;;;31.00;19.80;;;13.40;99.90;;;;;;5074869;28;20216;-74
2022/03/29 14:15:31;;;;;;;35.05;21.67;;;13.60;99.90;;;;;;5074957;28;20183;-74
2022/03/29 14:18:00;;;;;;;26.85;17.88;;;13.60;99.90;;;;;;5074695;28;20226;-74
2022/03/29 14:20:26;;;;;;;30.15;17.75;;;13.60;99.90;;;;;;5074783;28;20218;-74
2022/03/29 14:22:52;;;;;;;25.88;15.35;;;13.80;99.90;;;;;;5074723;28;20195;-73
2022/03/29 14:25:18;;;;;;;24.55;16.15;;;14.00;99.90;;;;;;5074685;28;20168;-74
2022/03/29 14:27:44;;;;;;;24.42;15.73;;;14.10;99.90;;;;;;5073370;28;20552;-74
2022/03/29 14:30:14;;;;;;;27.23;15.73;;;14.40;99.90;;;;;;5074623;28;20225;-74
2022/03/29 14:32:40;;;;;;;27.08;17.02;;;14.50;99.90;;;;;;5074539;28;20171;-74
2022/03/29 14:35:07;;;;;;;21.67;14.10;;;14.60;99.90;;;;;;5074506;28;20168;-74
2022/03/29 14:37:34;;;;;;;19.42;13.43;;;14.60;99.90;;;;;;5074418;28;20255;-74
2022/03/29 14:40:02;;;;;;;25.55;16.05;;;14.60;99.90;;;;;;5074345;28;20668;-74
2022/03/29 14:42:27;;;;;;;26.40;15.43;;;14.50;99.90;;;;;;5074343;28;20251;-90
2022/03/29 14:44:54;;;;;;;22.55;15.35;;;14.50;99.90;;;;;;5073262;28;20635;-90
2022/03/29 14:47:21;;;;;;;19.10;13.48;;;14.60;99.90;;;;;;5074373;28;20171;-88
2022/03/29 14:49:46;;;;;;;22.33;12.85;;;14.70;99.90;;;;;;5074189;28;20170;-88
2022/03/29 14:52:15;;;;;;;22.80;14.35;;;14.60;99.90;;;;;;5072878;28;20172;-87
2022/03/29 14:54:40;;;;;;;21.67;11.88;;;14.60;99.90;;;;;;5074090;28;20590;-86
2022/03/29 14:57:06;;;;;;;19.75;12.23;;;14.60;99.90;;;;;;5072862;28;20204;-87
2022/03/29 14:59:32;;;;;;;21.90;14.07;;;14.50;99.90;;;;;;5073771;28;20224;-87
2022/03/29 15:01:58;;;;;;;21.85;14.98;;;14.50;99.90;;;;;;5074106;28;20202;-87
2022/03/29 15:04:23;;;;;;;22.75;14.15;;;14.40;99.90;;;;;;5074048;28;20175;-87
2022/03/29 15:06:49;;;;;;;22.20;14.68;;;14.20;99.90;;;;;;5073023;28;20192;-87
2022/03/29 15:09:14;;;;;;;21.05;14.70;;;14.40;99.90;;;;;;5073559;28;20183;-87
2022/03/29 15:11:40;;;;;;;20.08;13.98;;;14.10;99.90;;;;;;5073865;28;20259;-87
2022/03/29 15:14:06;;;;;;;21.85;14.50;;;14.30;99.90;;;;;;5072432;28;20203;-88
2022/03/29 15:16:31;;;;;;;27.20;14.95;;;14.20;99.90;;;;;;5073732;28;20195;-87
2022/03/29 15:19:00;;;;;;;17.17;12.68;;;14.10;99.90;;;;;;5073720;28;20200;-86
2022/03/29 15:21:27;;;;;;;16.05;11.93;;;14.10;99.90;;;;;;5073703;28;20165;-72
2022/03/29 15:23:53;;;;;;;20.30;12.60;;;14.10;99.90;;;;;;5072310;28;20174;-73
2022/03/29 15:26:19;;;;;;;17.83;12.75;;;13.90;99.90;;;;;;5073549;28;20239;-74
2022/03/29 15:28:48;;;;;;;15.02;11.52;;;13.70;99.90;;;;;;5073574;28;20168;-72
2022/03/29 15:31:14;;;;;;;16.40;10.65;;;13.80;99.90;;;;;;5073583;28;20172;-72
2022/03/29 15:33:39;;;;;;;18.15;12.52;;;13.70;99.90;;;;;;5072287;28;20179;-72
2022/03/29 15:36:05;;;;;;;18.08;11.35;;;13.50;99.90;;;;;;5073477;28;20160;-72
2022/03/29 15:38:34;;;;;;;14.98;10.27;;;13.50;99.90;;;;;;5073424;28;20196;-72
2022/03/29 15:41:00;;;;;;;21.95;10.43;;;13.40;99.90;;;;;;5073391;28;20177;-72
2022/03/29 15:43:27;;;;;;;18.02;10.98;;;13.40;99.90;;;;;;5073383;28;20165;-72
2022/03/29 15:45:54;;;;;;;14.50;10.18;;;13.30;99.90;;;;;;5072431;28;20176;-72
2022/03/29 15:48:20;;;;;;;17.30;10.45;;;13.20;99.90;;;;;;5073396;28;20272;-72
2022/03/29 15:50:46;;;;;;;18.35;10.85;;;13.10;99.90;;;;;;5073301;28;20196;-72
2022/03/29 15:53:12;;;;;;;20.08;11.85;;;13.00;99.90;;;;;;5072097;28;20267;-72
2022/03/29 15:55:40;;;;;;;19.77;11.75;;;13.00;99.90;;;;;;5073290;28;20664;-72
2022/03/29 15:58:07;;;;;;;20.83;12.30;;;12.90;99.90;;;;;;5071629;28;20270;-72
2022/03/29 16:00:34;;;;;;;16.15;11.23;;;12.90;99.90;;;;;;5073327;28;20640;-72
2022/03/29 16:03:01;;;;;;;17.58;11.18;;;12.80;99.90;;;;;;5073199;28;20161;-72
2022/03/29 16:05:26;;;;;;;20.95;12.23;;;12.80;99.90;;;;;;5073198;28;20171;-72
2022/03/29 16:07:52;;;;;;;22.55;11.63;;;12.50;99.90;;;;;;5071921;28;20524;-72
2022/03/29 16:10:18;;;;;;;16.23;11.43;;;12.60;99.90;;;;;;5073179;28;20172;-72
2022/03/29 16:12:44;;;;;;;16.27;12.27;;;12.60;99.90;;;;;;5073073;28;20176;-72
2022/03/29 16:15:13;;;;;;;18.15;12.98;;;12.50;99.90;;;;;;5073074;28;20251;-72
2022/03/29 16:17:41;;;;;;;27.77;13.93;;;12.50;99.90;;;;;;5073069;28;20550;-72
2022/03/29 16:20:08;;;;;;;19.60;13.48;;;12.40;99.90;;;;;;5073795;28;20678;-72
2022/03/29 16:22:35;;;;;;;23.60;13.93;;;12.40;99.90;;;;;;5077084;28;20203;-72
2022/03/29 16:25:01;;;;;;;23.45;15.05;;;12.30;99.90;;;;;;5077018;28;20165;-72
2022/03/29 16:27:28;;;;;;;26.90;15.80;;;12.20;99.90;;;;;;5077017;28;20174;-72
2022/03/29 16:29:55;;;;;;;25.15;14.70;;;12.10;99.90;;;;;;5077036;28;20629;-72
2022/03/29 16:32:21;;;;;;;18.42;13.30;;;12.10;99.90;;;;;;5077111;28;20172;-72
2022/03/29 16:34:46;;;;;;;20.85;13.35;;;12.10;99.90;;;;;;5077019;28;20695;-72
2022/03/29 16:37:12;;;;;;;22.23;14.32;;;12.10;99.90;;;;;;5076950;28;20229;-72
2022/03/29 16:39:38;;;;;;;24.00;14.90;;;12.00;99.90;;;;;;5076695;28;20192;-72
2022/03/29 16:42:04;;;;;;;25.33;14.35;;;12.00;99.90;;;;;;5076803;28;20169;-73
2022/03/29 16:44:30;;;;;;;21.88;14.43;;;11.90;99.90;;;;;;5075488;28;20579;-72
2022/03/29 16:46:56;;;;;;;21.38;15.38;;;11.80;99.90;;;;;;5076589;28;20251;-72
2022/03/29 16:49:21;;;;;;;24.80;15.25;;;11.80;99.90;;;;;;5076727;28;20176;-72
2022/03/29 16:51:48;;;;;;;25.45;15.65;;;11.70;99.90;;;;;;5075329;28;20542;-72
2022/03/29 16:54:15;;;;;;;24.50;16.35;;;11.60;99.90;;;;;;5076482;28;20259;-72
2022/03/29 16:56:40;;;;;;;27.00;15.48;;;11.60;99.90;;;;;;5076312;28;20183;-72
2022/03/29 16:59:06;;;;;;;26.38;15.35;;;11.50;99.90;;;;;;5076099;28;20216;-72
2022/03/29 17:01:32;;;;;;;26.30;16.42;;;11.40;99.90;;;;;;5076334;28;20168;-72
2022/03/29 17:03:58;;;;;;;26.63;16.08;;;11.40;99.90;;;;;;5076205;28;20244;-72
2022/03/29 17:06:24;;;;;;;27.17;15.25;;;11.30;99.90;;;;;;5076094;28;20602;-72
2022/03/29 17:08:50;;;;;;;26.55;15.27;;;11.40;99.90;;;;;;5076029;28;20176;-72
2022/03/29 17:11:16;;;;;;;26.10;14.85;;;11.20;99.90;;;;;;5076116;28;20176;-72
2022/03/29 17:13:42;;;;;;;25.63;16.98;;;11.20;99.90;;;;;;5075470;28;20275;-72
2022/03/29 17:16:08;;;;;;;23.27;15.77;;;11.10;99.90;;;;;;5075844;28;20199;-72
2022/03/29 17:18:35;;;;;;;28.65;18.15;;;11.10;99.90;;;;;;5075923;28;20188;-72
2022/03/29 17:21:01;;;;;;;31.58;19.17;;;11.00;99.90;;;;;;5076047;28;20230;-72
2022/03/29 17:23:28;;;;;;;37.85;19.63;;;11.00;99.90;;;;;;5076085;28;20179;-72
2022/03/29 17:25:53;;;;;;;31.73;18.17;;;10.90;99.90;;;;;;5074828;28;20165;-73
2022/03/29 17:28:19;;;;;;;28.95;16.30;;;10.90;99.90;;;;;;5076033;28;20214;-72
